sensor_id;sensor_type;location;lat;lon;timestamp;P1;durP1;ratioP1;P2;durP2;ratioP2
73776;SDS011;62088;50.240;2.696;2022-11-04T00:00:43;9.82;;;1.80;;
73776;SDS011;62088;50.240;2.696;2022-11-04T00:03:10;17.30;;;2.78;;
73776;SDS011;62088;50.240;2.696;2022-11-04T00:05:37;18.15;;;2.85;;
73776;SDS011;62088;50.240;2.696;2022-11-04T00:08:04;15.02;;;2.80;;
73776;SDS011;62088;50.240;2.696;2022-11-04T00:10:56;12.48;;;2.50;;
73776;SDS011;62088;50.240;2.696;2022-11-04T00:13:42;11.02;;;2.30;;
73776;SDS011;62088;50.240;2.696;2022-11-04T00:16:10;12.02;;;2.72;;
73776;SDS011;62088;50.240;2.696;2022-11-04T00:18:55;13.32;;;2.78;;
73776;SDS011;62088;50.240;2.696;2022-11-04T00:21:23;10.15;;;2.33;;
73776;SDS011;62088;50.240;2.696;2022-11-04T00:24:12;10.10;;;2.47;;
73776;SDS011;62088;50.240;2.696;2022-11-04T00:26:58;11.23;;;2.47;;
73776;SDS011;62088;50.240;2.696;2022-11-04T00:29:43;15.60;;;2.80;;
73776;SDS011;62088;50.240;2.696;2022-11-04T00:32:10;15.27;;;2.40;;
73776;SDS011;62088;50.240;2.696;2022-11-04T00:34:56;15.02;;;2.13;;
73776;SDS011;62088;50.240;2.696;2022-11-04T00:37:23;14.90;;;2.40;;
73776;SDS011;62088;50.240;2.696;2022-11-04T00:39:50;13.25;;;3.05;;
73776;SDS011;62088;50.240;2.696;2022-11-04T00:42:17;14.75;;;2.50;;
73776;SDS011;62088;50.240;2.696;2022-11-04T00:44:44;14.85;;;2.90;;
73776;SDS011;62088;50.240;2.696;2022-11-04T00:47:10;13.93;;;2.80;;
73776;SDS011;62088;50.240;2.696;2022-11-04T00:49:37;14.02;;;3.05;;
73776;SDS011;62088;50.240;2.696;2022-11-04T00:52:04;12.48;;;2.60;;
73776;SDS011;62088;50.240;2.696;2022-11-04T00:54:31;13.23;;;2.58;;
73776;SDS011;62088;50.240;2.696;2022-11-04T00:56:58;9.93;;;2.63;;
73776;SDS011;62088;50.240;2.696;2022-11-04T00:59:25;15.10;;;3.30;;
73776;SDS011;62088;50.240;2.696;2022-11-04T01:01:52;13.20;;;2.65;;
73776;SDS011;62088;50.240;2.696;2022-11-04T01:04:21;14.55;;;3.10;;
73776;SDS011;62088;50.240;2.696;2022-11-04T01:06:48;11.88;;;2.65;;
73776;SDS011;62088;50.240;2.696;2022-11-04T01:09:15;12.90;;;2.65;;
73776;SDS011;62088;50.240;2.696;2022-11-04T01:11:41;16.08;;;3.28;;
73776;SDS011;62088;50.240;2.696;2022-11-04T01:14:08;14.05;;;2.65;;
73776;SDS011;62088;50.240;2.696;2022-11-04T01:16:36;16.13;;;3.63;;
73776;SDS011;62088;50.240;2.696;2022-11-04T01:19:03;13.38;;;3.20;;
73776;SDS011;62088;50.240;2.696;2022-11-04T01:21:30;17.88;;;3.15;;
73776;SDS011;62088;50.240;2.696;2022-11-04T01:23:58;15.23;;;3.22;;
73776;SDS011;62088;50.240;2.696;2022-11-04T01:26:25;13.00;;;3.10;;
73776;SDS011;62088;50.240;2.696;2022-11-04T01:28:54;16.02;;;3.13;;
73776;SDS011;62088;50.240;2.696;2022-11-04T01:31:22;11.20;;;3.20;;
73776;SDS011;62088;50.240;2.696;2022-11-04T01:33:52;12.45;;;2.78;;
73776;SDS011;62088;50.240;2.696;2022-11-04T01:36:20;11.30;;;2.65;;
73776;SDS011;62088;50.240;2.696;2022-11-04T01:38:47;11.88;;;2.95;;
73776;SDS011;62088;50.240;2.696;2022-11-04T01:41:19;16.63;;;3.13;;
73776;SDS011;62088;50.240;2.696;2022-11-04T01:43:49;13.30;;;3.17;;
73776;SDS011;62088;50.240;2.696;2022-11-04T01:46:46;13.13;;;3.40;;
73776;SDS011;62088;50.240;2.696;2022-11-04T01:51:47;17.27;;;3.50;;
73776;SDS011;62088;50.240;2.696;2022-11-04T01:54:17;13.70;;;2.60;;
73776;SDS011;62088;50.240;2.696;2022-11-04T01:56:44;19.88;;;3.33;;
73776;SDS011;62088;50.240;2.696;2022-11-04T01:59:15;14.50;;;3.00;;
73776;SDS011;62088;50.240;2.696;2022-11-04T02:01:51;9.02;;;2.45;;
73776;SDS011;62088;50.240;2.696;2022-11-04T02:04:19;16.80;;;3.40;;
73776;SDS011;62088;50.240;2.696;2022-11-04T02:06:54;12.10;;;3.42;;
73776;SDS011;62088;50.240;2.696;2022-11-04T02:09:24;15.75;;;2.83;;
73776;SDS011;62088;50.240;2.696;2022-11-04T02:11:53;12.73;;;2.97;;
73776;SDS011;62088;50.240;2.696;2022-11-04T02:14:39;12.05;;;2.83;;
73776;SDS011;62088;50.240;2.696;2022-11-04T02:33:52;15.13;;;2.92;;
73776;SDS011;62088;50.240;2.696;2022-11-04T02:42:38;18.23;;;3.23;;
73776;SDS011;62088;50.240;2.696;2022-11-04T02:47:51;15.32;;;3.00;;
73776;SDS011;62088;50.240;2.696;2022-11-04T02:50:30;14.98;;;2.88;;
73776;SDS011;62088;50.240;2.696;2022-11-04T02:53:14;15.40;;;2.80;;
73776;SDS011;62088;50.240;2.696;2022-11-04T02:55:47;17.80;;;2.85;;
73776;SDS011;62088;50.240;2.696;2022-11-04T02:58:19;17.13;;;3.13;;
73776;SDS011;62088;50.240;2.696;2022-11-04T03:00:50;17.97;;;3.00;;
73776;SDS011;62088;50.240;2.696;2022-11-04T03:03:21;14.98;;;2.95;;
73776;SDS011;62088;50.240;2.696;2022-11-04T03:05:51;14.60;;;2.65;;
73776;SDS011;62088;50.240;2.696;2022-11-04T03:08:24;18.98;;;3.30;;
73776;SDS011;62088;50.240;2.696;2022-11-04T03:11:02;16.08;;;3.45;;
73776;SDS011;62088;50.240;2.696;2022-11-04T03:21:20;14.30;;;2.67;;
73776;SDS011;62088;50.240;2.696;2022-11-04T03:23:48;14.10;;;2.90;;
73776;SDS011;62088;50.240;2.696;2022-11-04T03:26:27;10.98;;;2.67;;
73776;SDS011;62088;50.240;2.696;2022-11-04T03:29:04;12.88;;;2.75;;
73776;SDS011;62088;50.240;2.696;2022-11-04T03:31:52;14.68;;;2.78;;
73776;SDS011;62088;50.240;2.696;2022-11-04T03:34:37;17.63;;;3.03;;
73776;SDS011;62088;50.240;2.696;2022-11-04T03:37:04;22.05;;;2.90;;
73776;SDS011;62088;50.240;2.696;2022-11-04T03:39:31;13.75;;;2.75;;
73776;SDS011;62088;50.240;2.696;2022-11-04T03:41:59;15.95;;;2.92;;
73776;SDS011;62088;50.240;2.696;2022-11-04T03:44:49;15.18;;;3.33;;
73776;SDS011;62088;50.240;2.696;2022-11-04T03:47:18;20.23;;;3.20;;
73776;SDS011;62088;50.240;2.696;2022-11-04T03:49:47;13.50;;;3.20;;
73776;SDS011;62088;50.240;2.696;2022-11-04T03:52:15;28.80;;;3.70;;
73776;SDS011;62088;50.240;2.696;2022-11-04T03:54:43;14.25;;;2.63;;
73776;SDS011;62088;50.240;2.696;2022-11-04T04:00:08;15.65;;;2.63;;
73776;SDS011;62088;50.240;2.696;2022-11-04T04:05:31;17.88;;;2.83;;
73776;SDS011;62088;50.240;2.696;2022-11-04T04:08:24;18.95;;;3.38;;
73776;SDS011;62088;50.240;2.696;2022-11-04T04:11:07;12.75;;;2.33;;
73776;SDS011;62088;50.240;2.696;2022-11-04T04:14:01;14.70;;;2.97;;
73776;SDS011;62088;50.240;2.696;2022-11-04T04:16:44;15.90;;;2.80;;
73776;SDS011;62088;50.240;2.696;2022-11-04T04:19:13;12.13;;;2.33;;
73776;SDS011;62088;50.240;2.696;2022-11-04T04:24:17;15.48;;;3.03;;
73776;SDS011;62088;50.240;2.696;2022-11-04T04:27:05;15.45;;;2.85;;
73776;SDS011;62088;50.240;2.696;2022-11-04T04:29:50;12.32;;;3.15;;
73776;SDS011;62088;50.240;2.696;2022-11-04T04:32:19;16.67;;;2.90;;
73776;SDS011;62088;50.240;2.696;2022-11-04T04:34:48;21.35;;;3.75;;
73776;SDS011;62088;50.240;2.696;2022-11-04T04:37:19;13.82;;;2.53;;
73776;SDS011;62088;50.240;2.696;2022-11-04T04:39:55;16.58;;;2.83;;
73776;SDS011;62088;50.240;2.696;2022-11-04T04:42:50;18.75;;;3.40;;
73776;SDS011;62088;50.240;2.696;2022-11-04T04:45:37;15.40;;;3.00;;
73776;SDS011;62088;50.240;2.696;2022-11-04T04:48:08;13.27;;;2.33;;
73776;SDS011;62088;50.240;2.696;2022-11-04T04:50:39;14.98;;;2.92;;
73776;SDS011;62088;50.240;2.696;2022-11-04T04:53:09;14.15;;;2.72;;
73776;SDS011;62088;50.240;2.696;2022-11-04T04:55:37;15.40;;;2.95;;
73776;SDS011;62088;50.240;2.696;2022-11-04T04:58:07;16.50;;;3.20;;
73776;SDS011;62088;50.240;2.696;2022-11-04T05:00:34;17.38;;;3.10;;
73776;SDS011;62088;50.240;2.696;2022-11-04T05:03:01;14.52;;;2.85;;
73776;SDS011;62088;50.240;2.696;2022-11-04T05:05:28;14.68;;;3.00;;
73776;SDS011;62088;50.240;2.696;2022-11-04T05:08:02;15.88;;;2.90;;
73776;SDS011;62088;50.240;2.696;2022-11-04T05:10:30;14.68;;;2.72;;
73776;SDS011;62088;50.240;2.696;2022-11-04T05:12:58;14.82;;;2.70;;
73776;SDS011;62088;50.240;2.696;2022-11-04T05:15:44;15.07;;;2.67;;
73776;SDS011;62088;50.240;2.696;2022-11-04T05:18:11;11.73;;;2.53;;
73776;SDS011;62088;50.240;2.696;2022-11-04T05:20:38;11.48;;;2.25;;
73776;SDS011;62088;50.240;2.696;2022-11-04T05:23:06;15.68;;;2.20;;
73776;SDS011;62088;50.240;2.696;2022-11-04T05:25:33;12.90;;;2.28;;
73776;SDS011;62088;50.240;2.696;2022-11-04T05:28:00;12.63;;;2.60;;
73776;SDS011;62088;50.240;2.696;2022-11-04T05:30:28;13.60;;;2.22;;
73776;SDS011;62088;50.240;2.696;2022-11-04T05:32:55;12.50;;;2.60;;
73776;SDS011;62088;50.240;2.696;2022-11-04T05:35:29;14.88;;;2.83;;
73776;SDS011;62088;50.240;2.696;2022-11-04T05:37:56;12.77;;;2.90;;
73776;SDS011;62088;50.240;2.696;2022-11-04T05:40:23;12.30;;;2.40;;
73776;SDS011;62088;50.240;2.696;2022-11-04T05:42:50;12.90;;;2.17;;
73776;SDS011;62088;50.240;2.696;2022-11-04T05:45:17;15.18;;;2.50;;
73776;SDS011;62088;50.240;2.696;2022-11-04T05:47:44;15.55;;;2.40;;
73776;SDS011;62088;50.240;2.696;2022-11-04T05:50:11;13.82;;;2.47;;
73776;SDS011;62088;50.240;2.696;2022-11-04T05:52:38;9.82;;;2.00;;
73776;SDS011;62088;50.240;2.696;2022-11-04T05:55:05;10.05;;;2.05;;
73776;SDS011;62088;50.240;2.696;2022-11-04T05:57:32;11.25;;;2.10;;
73776;SDS011;62088;50.240;2.696;2022-11-04T06:00:01;12.43;;;2.50;;
73776;SDS011;62088;50.240;2.696;2022-11-04T06:02:29;9.32;;;2.13;;
73776;SDS011;62088;50.240;2.696;2022-11-04T06:04:56;11.18;;;2.35;;
73776;SDS011;62088;50.240;2.696;2022-11-04T06:07:23;8.98;;;2.10;;
73776;SDS011;62088;50.240;2.696;2022-11-04T06:09:50;7.72;;;1.77;;
73776;SDS011;62088;50.240;2.696;2022-11-04T06:12:17;10.75;;;1.83;;
73776;SDS011;62088;50.240;2.696;2022-11-04T06:14:44;7.40;;;1.50;;
73776;SDS011;62088;50.240;2.696;2022-11-04T06:17:15;9.30;;;1.77;;
73776;SDS011;62088;50.240;2.696;2022-11-04T06:19:43;13.15;;;1.73;;
73776;SDS011;62088;50.240;2.696;2022-11-04T06:22:11;11.23;;;2.17;;
73776;SDS011;62088;50.240;2.696;2022-11-04T06:24:39;9.90;;;1.80;;
73776;SDS011;62088;50.240;2.696;2022-11-04T06:27:06;8.88;;;1.80;;
73776;SDS011;62088;50.240;2.696;2022-11-04T06:29:34;10.18;;;1.85;;
73776;SDS011;62088;50.240;2.696;2022-11-04T06:32:08;11.32;;;2.08;;
73776;SDS011;62088;50.240;2.696;2022-11-04T06:34:37;12.25;;;1.90;;
73776;SDS011;62088;50.240;2.696;2022-11-04T06:37:04;11.13;;;2.30;;
73776;SDS011;62088;50.240;2.696;2022-11-04T06:39:31;10.35;;;1.98;;
73776;SDS011;62088;50.240;2.696;2022-11-04T06:41:58;13.38;;;1.65;;
73776;SDS011;62088;50.240;2.696;2022-11-04T06:44:28;10.05;;;1.60;;
73776;SDS011;62088;50.240;2.696;2022-11-04T06:46:55;11.18;;;1.65;;
73776;SDS011;62088;50.240;2.696;2022-11-04T06:49:22;6.38;;;1.50;;
73776;SDS011;62088;50.240;2.696;2022-11-04T06:51:49;9.88;;;1.70;;
73776;SDS011;62088;50.240;2.696;2022-11-04T06:54:17;7.00;;;1.50;;
73776;SDS011;62088;50.240;2.696;2022-11-04T06:56:44;7.65;;;2.00;;
73776;SDS011;62088;50.240;2.696;2022-11-04T06:59:14;6.00;;;1.30;;
73776;SDS011;62088;50.240;2.696;2022-11-04T07:01:42;6.50;;;1.38;;
73776;SDS011;62088;50.240;2.696;2022-11-04T07:04:10;5.93;;;1.33;;
73776;SDS011;62088;50.240;2.696;2022-11-04T07:06:37;7.90;;;1.75;;
73776;SDS011;62088;50.240;2.696;2022-11-04T07:09:10;8.27;;;1.88;;
73776;SDS011;62088;50.240;2.696;2022-11-04T07:11:38;8.10;;;1.35;;
73776;SDS011;62088;50.240;2.696;2022-11-04T07:14:06;4.75;;;1.15;;
73776;SDS011;62088;50.240;2.696;2022-11-04T07:16:34;8.52;;;2.00;;
73776;SDS011;62088;50.240;2.696;2022-11-04T07:19:01;4.75;;;1.17;;
73776;SDS011;62088;50.240;2.696;2022-11-04T07:21:28;9.20;;;1.40;;
73776;SDS011;62088;50.240;2.696;2022-11-04T07:23:56;9.60;;;1.58;;
73776;SDS011;62088;50.240;2.696;2022-11-04T07:26:23;7.68;;;1.55;;
73776;SDS011;62088;50.240;2.696;2022-11-04T07:28:50;6.22;;;1.30;;
73776;SDS011;62088;50.240;2.696;2022-11-04T07:31:17;11.60;;;1.63;;
73776;SDS011;62088;50.240;2.696;2022-11-04T07:33:44;9.57;;;1.80;;
73776;SDS011;62088;50.240;2.696;2022-11-04T07:36:15;5.05;;;1.13;;
73776;SDS011;62088;50.240;2.696;2022-11-04T07:38:43;4.03;;;1.50;;
73776;SDS011;62088;50.240;2.696;2022-11-04T07:41:11;11.63;;;1.77;;
73776;SDS011;62088;50.240;2.696;2022-11-04T07:43:39;7.50;;;1.48;;
73776;SDS011;62088;50.240;2.696;2022-11-04T07:46:10;10.52;;;1.95;;
73776;SDS011;62088;50.240;2.696;2022-11-04T07:48:38;6.13;;;1.85;;
73776;SDS011;62088;50.240;2.696;2022-11-04T07:51:06;8.43;;;1.92;;
73776;SDS011;62088;50.240;2.696;2022-11-04T07:53:35;6.90;;;1.30;;
73776;SDS011;62088;50.240;2.696;2022-11-04T07:56:02;7.65;;;1.65;;
73776;SDS011;62088;50.240;2.696;2022-11-04T07:58:33;5.88;;;1.33;;
73776;SDS011;62088;50.240;2.696;2022-11-04T08:01:01;8.88;;;2.22;;
73776;SDS011;62088;50.240;2.696;2022-11-04T08:03:33;7.30;;;1.80;;
73776;SDS011;62088;50.240;2.696;2022-11-04T08:06:01;9.73;;;1.73;;
73776;SDS011;62088;50.240;2.696;2022-11-04T08:08:30;11.23;;;2.10;;
73776;SDS011;62088;50.240;2.696;2022-11-04T08:11:05;11.40;;;2.00;;
73776;SDS011;62088;50.240;2.696;2022-11-04T08:13:39;7.90;;;1.52;;
73776;SDS011;62088;50.240;2.696;2022-11-04T08:16:11;9.95;;;2.00;;
73776;SDS011;62088;50.240;2.696;2022-11-04T08:18:40;7.68;;;1.58;;
73776;SDS011;62088;50.240;2.696;2022-11-04T08:21:08;5.85;;;1.50;;
73776;SDS011;62088;50.240;2.696;2022-11-04T08:23:36;10.93;;;1.90;;
73776;SDS011;62088;50.240;2.696;2022-11-04T08:26:07;7.82;;;1.55;;
73776;SDS011;62088;50.240;2.696;2022-11-04T08:28:39;9.32;;;1.83;;
73776;SDS011;62088;50.240;2.696;2022-11-04T08:31:16;6.88;;;1.92;;
73776;SDS011;62088;50.240;2.696;2022-11-04T08:33:43;8.38;;;1.60;;
73776;SDS011;62088;50.240;2.696;2022-11-04T08:36:13;10.07;;;2.10;;
73776;SDS011;62088;50.240;2.696;2022-11-04T08:38:45;9.27;;;1.83;;
73776;SDS011;62088;50.240;2.696;2022-11-04T08:41:13;7.70;;;1.75;;
73776;SDS011;62088;50.240;2.696;2022-11-04T08:43:42;9.07;;;2.28;;
73776;SDS011;62088;50.240;2.696;2022-11-04T08:46:09;9.30;;;2.22;;
73776;SDS011;62088;50.240;2.696;2022-11-04T08:48:38;9.65;;;2.08;;
73776;SDS011;62088;50.240;2.696;2022-11-04T08:51:09;7.60;;;2.00;;
73776;SDS011;62088;50.240;2.696;2022-11-04T08:53:42;9.75;;;2.13;;
73776;SDS011;62088;50.240;2.696;2022-11-04T08:56:10;11.88;;;2.50;;
73776;SDS011;62088;50.240;2.696;2022-11-04T08:58:44;9.93;;;2.45;;
73776;SDS011;62088;50.240;2.696;2022-11-04T09:01:12;12.55;;;2.30;;
73776;SDS011;62088;50.240;2.696;2022-11-04T09:03:40;8.05;;;2.17;;
73776;SDS011;62088;50.240;2.696;2022-11-04T09:06:09;13.80;;;2.50;;
73776;SDS011;62088;50.240;2.696;2022-11-04T09:08:38;10.98;;;2.33;;
73776;SDS011;62088;50.240;2.696;2022-11-04T09:11:07;9.85;;;1.98;;
73776;SDS011;62088;50.240;2.696;2022-11-04T09:13:35;13.25;;;2.67;;
73776;SDS011;62088;50.240;2.696;2022-11-04T09:16:05;10.10;;;2.13;;
73776;SDS011;62088;50.240;2.696;2022-11-04T09:18:33;13.57;;;2.60;;
73776;SDS011;62088;50.240;2.696;2022-11-04T09:21:01;11.70;;;2.20;;
73776;SDS011;62088;50.240;2.696;2022-11-04T09:23:30;13.07;;;2.17;;
73776;SDS011;62088;50.240;2.696;2022-11-04T09:26:02;10.75;;;1.90;;
73776;SDS011;62088;50.240;2.696;2022-11-04T09:28:34;10.40;;;2.10;;
73776;SDS011;62088;50.240;2.696;2022-11-04T09:31:06;10.95;;;1.95;;
73776;SDS011;62088;50.240;2.696;2022-11-04T09:33:34;11.23;;;1.67;;
73776;SDS011;62088;50.240;2.696;2022-11-04T09:36:01;9.52;;;2.05;;
73776;SDS011;62088;50.240;2.696;2022-11-04T09:38:28;13.02;;;2.10;;
73776;SDS011;62088;50.240;2.696;2022-11-04T09:40:55;13.43;;;3.67;;
73776;SDS011;62088;50.240;2.696;2022-11-04T09:45:57;17.83;;;3.08;;
73776;SDS011;62088;50.240;2.696;2022-11-04T09:50:54;11.90;;;2.42;;
73776;SDS011;62088;50.240;2.696;2022-11-04T09:56:19;18.50;;;2.55;;
73776;SDS011;62088;50.240;2.696;2022-11-04T09:58:48;10.55;;;2.53;;
73776;SDS011;62088;50.240;2.696;2022-11-04T10:01:27;9.15;;;2.42;;
73776;SDS011;62088;50.240;2.696;2022-11-04T10:04:11;10.20;;;2.25;;
73776;SDS011;62088;50.240;2.696;2022-11-04T10:07:05;13.33;;;2.60;;
73776;SDS011;62088;50.240;2.696;2022-11-04T10:15:40;12.75;;;2.60;;
73776;SDS011;62088;50.240;2.696;2022-11-04T10:27:09;6.60;;;2.10;;
73776;SDS011;62088;50.240;2.696;2022-11-04T10:29:43;9.25;;;2.08;;
73776;SDS011;62088;50.240;2.696;2022-11-04T10:32:19;10.35;;;2.28;;
73776;SDS011;62088;50.240;2.696;2022-11-04T10:34:51;10.50;;;2.33;;
73776;SDS011;62088;50.240;2.696;2022-11-04T10:37:27;9.57;;;2.30;;
73776;SDS011;62088;50.240;2.696;2022-11-04T10:42:40;8.93;;;2.55;;
73776;SDS011;62088;50.240;2.696;2022-11-04T10:45:10;8.18;;;2.35;;
73776;SDS011;62088;50.240;2.696;2022-11-04T10:50:36;12.02;;;3.00;;
73776;SDS011;62088;50.240;2.696;2022-11-04T10:53:11;10.60;;;2.80;;
73776;SDS011;62088;50.240;2.696;2022-11-04T10:58:44;11.75;;;2.90;;
73776;SDS011;62088;50.240;2.696;2022-11-04T11:01:46;9.98;;;2.67;;
73776;SDS011;62088;50.240;2.696;2022-11-04T11:04:22;9.48;;;2.45;;
73776;SDS011;62088;50.240;2.696;2022-11-04T11:07:12;8.10;;;2.92;;
73776;SDS011;62088;50.240;2.696;2022-11-04T11:09:49;10.25;;;2.70;;
73776;SDS011;62088;50.240;2.696;2022-11-04T11:12:22;12.48;;;3.08;;
73776;SDS011;62088;50.240;2.696;2022-11-04T11:17:56;6.13;;;2.03;;
73776;SDS011;62088;50.240;2.696;2022-11-04T11:20:28;10.93;;;3.83;;
73776;SDS011;62088;50.240;2.696;2022-11-04T11:22:57;15.00;;;4.07;;
73776;SDS011;62088;50.240;2.696;2022-11-04T11:25:30;12.18;;;4.13;;
73776;SDS011;62088;50.240;2.696;2022-11-04T11:28:03;9.40;;;2.90;;
73776;SDS011;62088;50.240;2.696;2022-11-04T11:30:33;13.90;;;3.00;;
73776;SDS011;62088;50.240;2.696;2022-11-04T11:33:30;10.23;;;2.78;;
73776;SDS011;62088;50.240;2.696;2022-11-04T11:36:03;10.68;;;3.50;;
73776;SDS011;62088;50.240;2.696;2022-11-04T11:44:30;12.68;;;3.67;;
73776;SDS011;62088;50.240;2.696;2022-11-04T11:47:20;10.53;;;3.97;;
73776;SDS011;62088;50.240;2.696;2022-11-04T11:50:14;9.40;;;3.40;;
73776;SDS011;62088;50.240;2.696;2022-11-04T11:52:47;9.60;;;2.78;;
73776;SDS011;62088;50.240;2.696;2022-11-04T11:55:22;8.95;;;2.78;;
73776;SDS011;62088;50.240;2.696;2022-11-04T12:01:03;8.23;;;2.67;;
73776;SDS011;62088;50.240;2.696;2022-11-04T12:03:49;14.32;;;3.80;;
73776;SDS011;62088;50.240;2.696;2022-11-04T12:09:46;13.10;;;3.58;;
73776;SDS011;62088;50.240;2.696;2022-11-04T12:12:30;8.50;;;4.10;;
73776;SDS011;62088;50.240;2.696;2022-11-04T12:15:16;8.65;;;3.40;;
73776;SDS011;62088;50.240;2.696;2022-11-04T12:23:46;10.07;;;3.92;;
73776;SDS011;62088;50.240;2.696;2022-11-04T12:26:35;11.07;;;4.07;;
73776;SDS011;62088;50.240;2.696;2022-11-04T12:32:02;11.15;;;4.65;;
73776;SDS011;62088;50.240;2.696;2022-11-04T12:34:46;10.65;;;3.50;;
73776;SDS011;62088;50.240;2.696;2022-11-04T12:40:20;9.15;;;3.35;;
73776;SDS011;62088;50.240;2.696;2022-11-04T12:45:35;11.45;;;3.80;;
73776;SDS011;62088;50.240;2.696;2022-11-04T12:54:07;8.70;;;3.13;;
73776;SDS011;62088;50.240;2.696;2022-11-04T12:57:06;9.18;;;2.83;;
73776;SDS011;62088;50.240;2.696;2022-11-04T12:59:43;7.47;;;2.80;;
73776;SDS011;62088;50.240;2.696;2022-11-04T13:10:42;6.22;;;2.50;;
73776;SDS011;62088;50.240;2.696;2022-11-04T13:13:22;7.82;;;3.17;;
73776;SDS011;62088;50.240;2.696;2022-11-04T13:15:57;6.95;;;2.65;;
73776;SDS011;62088;50.240;2.696;2022-11-04T13:18:29;11.32;;;3.40;;
73776;SDS011;62088;50.240;2.696;2022-11-04T13:21:05;8.40;;;2.90;;
73776;SDS011;62088;50.240;2.696;2022-11-04T13:23:40;7.45;;;2.42;;
73776;SDS011;62088;50.240;2.696;2022-11-04T13:26:30;8.82;;;3.08;;
73776;SDS011;62088;50.240;2.696;2022-11-04T13:29:16;9.85;;;2.90;;
73776;SDS011;62088;50.240;2.696;2022-11-04T13:34:42;10.55;;;3.22;;
73776;SDS011;62088;50.240;2.696;2022-11-04T13:37:22;6.57;;;2.37;;
73776;SDS011;62088;50.240;2.696;2022-11-04T13:45:45;6.93;;;2.38;;
73776;SDS011;62088;50.240;2.696;2022-11-04T13:48:40;6.15;;;1.95;;
73776;SDS011;62088;50.240;2.696;2022-11-04T13:51:14;6.53;;;2.10;;
73776;SDS011;62088;50.240;2.696;2022-11-04T13:56:29;5.28;;;1.38;;
73776;SDS011;62088;50.240;2.696;2022-11-04T13:59:22;4.60;;;1.55;;
73776;SDS011;62088;50.240;2.696;2022-11-04T14:04:46;4.82;;;1.45;;
73776;SDS011;62088;50.240;2.696;2022-11-04T14:07:14;6.07;;;1.27;;
73776;SDS011;62088;50.240;2.696;2022-11-04T14:14:45;4.80;;;0.90;;
73776;SDS011;62088;50.240;2.696;2022-11-04T14:25:28;4.85;;;1.20;;
73776;SDS011;62088;50.240;2.696;2022-11-04T14:33:25;7.10;;;1.48;;
73776;SDS011;62088;50.240;2.696;2022-11-04T14:35:55;5.88;;;1.40;;
73776;SDS011;62088;50.240;2.696;2022-11-04T14:38:38;6.10;;;1.30;;
73776;SDS011;62088;50.240;2.696;2022-11-04T14:41:10;5.65;;;1.30;;
73776;SDS011;62088;50.240;2.696;2022-11-04T14:43:42;7.00;;;1.25;;
73776;SDS011;62088;50.240;2.696;2022-11-04T14:46:11;4.80;;;1.45;;
73776;SDS011;62088;50.240;2.696;2022-11-04T14:48:46;7.43;;;1.60;;
73776;SDS011;62088;50.240;2.696;2022-11-04T14:51:19;5.40;;;1.40;;
73776;SDS011;62088;50.240;2.696;2022-11-04T14:53:51;6.25;;;1.58;;
73776;SDS011;62088;50.240;2.696;2022-11-04T14:56:24;6.50;;;1.67;;
73776;SDS011;62088;50.240;2.696;2022-11-04T15:01:27;6.90;;;1.58;;
73776;SDS011;62088;50.240;2.696;2022-11-04T15:04:43;5.28;;;1.20;;
73776;SDS011;62088;50.240;2.696;2022-11-04T15:06:53;4.45;;;1.10;;
73776;SDS011;62088;50.240;2.696;2022-11-04T15:09:22;4.68;;;0.95;;
73776;SDS011;62088;50.240;2.696;2022-11-04T15:12:24;6.60;;;1.33;;
73776;SDS011;62088;50.240;2.696;2022-11-04T15:15:24;4.45;;;1.17;;
73776;SDS011;62088;50.240;2.696;2022-11-04T15:20:53;4.13;;;1.08;;
73776;SDS011;62088;50.240;2.696;2022-11-04T15:25:53;7.95;;;1.20;;
73776;SDS011;62088;50.240;2.696;2022-11-04T15:28:22;6.82;;;1.30;;
73776;SDS011;62088;50.240;2.696;2022-11-04T15:31:03;3.78;;;0.95;;
73776;SDS011;62088;50.240;2.696;2022-11-04T15:33:39;3.30;;;0.93;;
73776;SDS011;62088;50.240;2.696;2022-11-04T15:36:31;7.57;;;1.27;;
73776;SDS011;62088;50.240;2.696;2022-11-04T15:39:01;7.07;;;1.00;;
73776;SDS011;62088;50.240;2.696;2022-11-04T15:41:37;5.47;;;0.93;;
73776;SDS011;62088;50.240;2.696;2022-11-04T15:44:25;5.07;;;0.90;;
73776;SDS011;62088;50.240;2.696;2022-11-04T16:02:38;4.55;;;1.13;;
73776;SDS011;62088;50.240;2.696;2022-11-04T16:07:43;5.13;;;0.90;;
73776;SDS011;62088;50.240;2.696;2022-11-04T16:10:45;4.05;;;0.93;;
73776;SDS011;62088;50.240;2.696;2022-11-04T16:21:00;4.60;;;1.23;;
73776;SDS011;62088;50.240;2.696;2022-11-04T16:23:31;3.65;;;0.90;;
73776;SDS011;62088;50.240;2.696;2022-11-04T16:26:00;4.60;;;1.10;;
73776;SDS011;62088;50.240;2.696;2022-11-04T16:28:34;4.28;;;1.00;;
73776;SDS011;62088;50.240;2.696;2022-11-04T16:31:07;3.95;;;1.20;;
73776;SDS011;62088;50.240;2.696;2022-11-04T16:33:49;3.75;;;1.00;;
73776;SDS011;62088;50.240;2.696;2022-11-04T16:36:16;9.00;;;1.35;;
73776;SDS011;62088;50.240;2.696;2022-11-04T16:38:52;4.45;;;1.42;;
73776;SDS011;62088;50.240;2.696;2022-11-04T16:41:21;6.78;;;1.40;;
73776;SDS011;62088;50.240;2.696;2022-11-04T16:43:49;7.10;;;2.20;;
73776;SDS011;62088;50.240;2.696;2022-11-04T16:46:17;5.93;;;1.70;;
73776;SDS011;62088;50.240;2.696;2022-11-04T16:48:44;9.48;;;2.03;;
73776;SDS011;62088;50.240;2.696;2022-11-04T16:51:18;6.35;;;1.60;;
73776;SDS011;62088;50.240;2.696;2022-11-04T16:53:47;11.15;;;2.00;;
73776;SDS011;62088;50.240;2.696;2022-11-04T16:56:15;10.07;;;2.10;;
73776;SDS011;62088;50.240;2.696;2022-11-04T16:58:44;6.25;;;2.00;;
73776;SDS011;62088;50.240;2.696;2022-11-04T17:01:11;7.53;;;1.83;;
73776;SDS011;62088;50.240;2.696;2022-11-04T17:03:40;7.57;;;2.03;;
73776;SDS011;62088;50.240;2.696;2022-11-04T17:06:09;6.75;;;2.13;;
73776;SDS011;62088;50.240;2.696;2022-11-04T17:08:40;9.38;;;2.75;;
73776;SDS011;62088;50.240;2.696;2022-11-04T17:11:08;6.40;;;1.98;;
73776;SDS011;62088;50.240;2.696;2022-11-04T17:13:36;9.88;;;2.00;;
73776;SDS011;62088;50.240;2.696;2022-11-04T17:16:04;7.28;;;2.00;;
73776;SDS011;62088;50.240;2.696;2022-11-04T17:18:32;10.20;;;2.35;;
73776;SDS011;62088;50.240;2.696;2022-11-04T17:21:01;10.00;;;2.15;;
73776;SDS011;62088;50.240;2.696;2022-11-04T17:23:31;7.43;;;2.30;;
73776;SDS011;62088;50.240;2.696;2022-11-04T17:25:58;11.18;;;2.83;;
73776;SDS011;62088;50.240;2.696;2022-11-04T17:28:26;8.23;;;2.63;;
73776;SDS011;62088;50.240;2.696;2022-11-04T17:30:52;7.55;;;1.90;;
73776;SDS011;62088;50.240;2.696;2022-11-04T17:33:19;9.10;;;2.40;;
73776;SDS011;62088;50.240;2.696;2022-11-04T17:35:47;9.55;;;2.42;;
73776;SDS011;62088;50.240;2.696;2022-11-04T17:38:16;13.25;;;2.63;;
73776;SDS011;62088;50.240;2.696;2022-11-04T17:40:44;10.80;;;2.55;;
73776;SDS011;62088;50.240;2.696;2022-11-04T17:43:49;8.43;;;2.85;;
73776;SDS011;62088;50.240;2.696;2022-11-04T17:46:28;10.13;;;2.67;;
73776;SDS011;62088;50.240;2.696;2022-11-04T17:49:00;9.25;;;2.85;;
73776;SDS011;62088;50.240;2.696;2022-11-04T17:51:28;12.45;;;3.13;;
73776;SDS011;62088;50.240;2.696;2022-11-04T17:53:55;9.45;;;2.80;;
73776;SDS011;62088;50.240;2.696;2022-11-04T17:56:23;11.10;;;3.05;;
73776;SDS011;62088;50.240;2.696;2022-11-04T17:58:50;9.25;;;2.90;;
73776;SDS011;62088;50.240;2.696;2022-11-04T18:01:19;11.45;;;3.33;;
73776;SDS011;62088;50.240;2.696;2022-11-04T18:03:49;12.02;;;3.47;;
73776;SDS011;62088;50.240;2.696;2022-11-04T18:06:18;10.40;;;3.70;;
73776;SDS011;62088;50.240;2.696;2022-11-04T18:08:46;10.18;;;3.70;;
73776;SDS011;62088;50.240;2.696;2022-11-04T18:11:13;9.43;;;3.45;;
73776;SDS011;62088;50.240;2.696;2022-11-04T18:14:01;12.98;;;3.97;;
73776;SDS011;62088;50.240;2.696;2022-11-04T18:16:28;13.82;;;3.55;;
73776;SDS011;62088;50.240;2.696;2022-11-04T18:18:58;10.73;;;3.03;;